Time;durP1;ratioP1;P1;durP2;ratioP2;P2;SDS_P1;SDS_P2;PMS_P1;PMS_P2;Temp;Humidity;BMP_temperature;BMP_pressure;BME280_temperature;BME280_humidity;BME280_pressure;Samples;Min_cycle;Max_cycle;Signal;HPM_P1;HPM_P2
2021/03/29 00:00:55;;;;;;;25.60;13.50;;;;;;;3.56;72.92;101123.30;233845;1174;116102;-64
2021/03/29 00:05:59;;;;;;;33.23;15.05;;;;;;;3.57;72.00;101110.94;233866;1170;115862;-64
2021/03/29 00:11:06;;;;;;;25.97;14.23;;;;;;;3.59;72.14;101122.98;233310;1174;115186;-63
2021/03/29 00:16:11;;;;;;;25.90;14.45;;;;;;;3.63;70.77;101112.95;233769;1174;115375;-64
2021/03/29 00:21:14;;;;;;;21.70;14.63;;;;;;;3.77;71.42;101119.45;235210;1174;114769;-64
2021/03/29 00:26:19;;;;;;;24.87;14.03;;;;;;;3.83;70.68;101113.55;235181;1174;114931;-65
2021/03/29 00:31:22;;;;;;;28.90;15.50;;;;;;;3.92;70.62;101115.25;235269;1174;115633;-64
2021/03/29 00:36:27;;;;;;;22.78;14.45;;;;;;;3.95;70.06;101114.94;234350;1174;117932;-65
2021/03/29 00:41:31;;;;;;;32.97;16.10;;;;;;;3.96;71.30;101116.59;234245;1174;115437;-66
2021/03/29 00:46:36;;;;;;;25.25;12.15;;;;;;;3.90;72.91;101111.94;232498;1174;115216;-67
2021/03/29 00:51:40;;;;;;;31.83;14.13;;;;;;;3.90;71.31;101110.13;233225;1174;115126;-66
2021/03/29 00:56:45;;;;;;;24.75;14.10;;;;;;;3.96;72.11;101106.87;232969;1174;115166;-66
2021/03/29 01:01:50;;;;;;;34.53;14.97;;;;;;;3.99;72.75;101108.33;232487;1174;114752;-66
2021/03/29 01:06:56;;;;;;;27.25;15.50;;;;;;;4.01;71.96;101109.00;233528;1174;114864;-66
2021/03/29 01:12:05;;;;;;;33.27;14.03;;;;;;;4.00;72.11;101110.81;232810;1174;115938;-66
2021/03/29 01:17:32;;;;;;;26.48;14.23;;;;;;;3.99;71.46;101100.42;232480;1174;115200;-67
2021/03/29 01:22:42;;;;;;;24.13;11.70;;;;;;;3.97;72.38;101105.05;232935;1174;115072;-66
2021/03/29 01:27:59;;;;;;;23.45;13.58;;;;;;;3.97;71.48;101102.42;233190;1174;115628;-65
2021/03/29 01:33:04;;;;;;;20.15;13.08;;;;;;;4.02;71.36;101114.13;233211;1174;115616;-66
2021/03/29 01:38:10;;;;;;;25.50;13.88;;;;;;;4.14;72.48;101105.94;232764;1174;114611;-66
2021/03/29 01:43:16;;;;;;;27.48;13.43;;;;;;;4.16;71.16;101104.79;232531;1174;116513;-67
2021/03/29 01:48:24;;;;;;;25.63;13.05;;;;;;;4.18;71.20;101102.81;233305;1170;116081;-66
2021/03/29 01:53:32;;;;;;;22.30;13.10;;;;;;;4.14;71.55;101098.84;232965;1170;114938;-67
2021/03/29 01:58:37;;;;;;;17.47;10.63;;;;;;;4.12;72.05;101098.17;233939;1174;114942;-66
2021/03/29 02:03:43;;;;;;;23.53;11.27;;;;;;;4.11;73.02;101096.52;233058;1174;115119;-67
2021/03/29 02:08:47;;;;;;;25.20;14.97;;;;;;;4.08;71.97;101102.11;233355;1168;114694;-66
2021/03/29 02:13:57;;;;;;;25.95;14.45;;;;;;;4.14;71.83;101092.73;234098;1174;115682;-67
2021/03/29 02:19:05;;;;;;;20.30;13.67;;;;;;;4.22;72.64;101088.32;234622;1174;114896;-67
2021/03/29 02:24:12;;;;;;;22.60;12.35;;;;;;;4.31;72.49;101095.25;235046;1168;115610;-67
2021/03/29 02:29:31;;;;;;;20.20;11.47;;;;;;;4.35;72.10;101101.04;235129;1174;115001;-67
2021/03/29 02:34:36;;;;;;;20.17;12.17;;;;;;;4.40;71.05;101094.30;235128;1174;115733;-65
2021/03/29 02:39:39;;;;;;;20.35;11.45;;;;;;;4.47;71.78;101094.48;235140;1174;115967;-65
2021/03/29 02:44:43;;;;;;;16.40;10.37;;;;;;;4.46;71.62;101098.11;233625;1174;115206;-66
2021/03/29 02:49:49;;;;;;;18.07;12.40;;;;;;;4.51;70.96;101092.34;234060;1174;114975;-66
2021/03/29 02:54:53;;;;;;;17.75;11.05;;;;;;;4.58;71.37;101101.28;233895;1174;115872;-67
2021/03/29 02:59:57;;;;;;;24.58;13.25;;;;;;;4.61;71.17;101099.11;233749;1174;115452;-65
2021/03/29 03:05:01;;;;;;;27.77;13.63;;;;;;;4.67;71.02;101113.48;233273;1174;115227;-65
2021/03/29 03:10:12;;;;;;;15.73;11.98;;;;;;;4.65;71.13;101120.75;233129;1174;115633;-66
2021/03/29 03:15:22;;;;;;;22.63;12.80;;;;;;;4.56;71.71;101117.28;233524;1174;115350;-64
2021/03/29 03:20:29;;;;;;;17.30;11.27;;;;;;;4.47;72.93;101110.33;232612;1174;115440;-65
2021/03/29 03:25:42;;;;;;;23.00;12.50;;;;;;;4.50;72.49;101111.82;232731;1174;115040;-65
2021/03/29 03:30:53;;;;;;;24.87;12.70;;;;;;;4.48;75.51;101105.88;232890;1174;115553;-66
2021/03/29 03:35:57;;;;;;;23.30;12.70;;;;;;;4.44;74.67;101112.45;232544;1172;115285;-66
2021/03/29 03:41:08;;;;;;;19.45;11.05;;;;;;;4.45;74.94;101103.55;232534;1174;115286;-68
2021/03/29 03:46:17;;;;;;;25.45;11.30;;;;;;;4.45;75.10;101107.02;233379;1174;114719;-66
2021/03/29 03:51:29;;;;;;;24.18;12.90;;;;;;;4.49;75.60;101104.89;232560;1174;115153;-66
2021/03/29 03:56:37;;;;;;;21.40;10.75;;;;;;;4.56;75.63;101106.72;232779;1174;114702;-66
2021/03/29 04:01:58;;;;;;;19.43;11.78;;;;;;;4.54;75.80;101100.78;232566;1170;115145;-66
2021/03/29 04:07:02;;;;;;;23.97;14.50;;;;;;;4.51;76.31;101111.66;233679;1170;115296;-66
2021/03/29 04:12:11;;;;;;;21.20;11.15;;;;;;;4.49;77.96;101112.81;233327;1174;115382;-65
2021/03/29 04:17:14;;;;;;;18.65;11.53;;;;;;;4.45;78.16;101107.02;234045;1174;115313;-65
2021/03/29 04:22:17;;;;;;;24.50;11.50;;;;;;;4.56;77.48;101105.90;234120;1174;122148;-65
2021/03/29 04:27:20;;;;;;;22.70;14.00;;;;;;;4.59;76.99;101105.55;235009;1174;115365;-67
2021/03/29 04:32:23;;;;;;;20.63;11.87;;;;;;;4.61;76.68;101107.04;235057;1174;114953;-67
2021/03/29 04:37:25;;;;;;;17.90;10.67;;;;;;;4.60;77.48;101099.27;235238;1174;114847;-71
2021/03/29 04:42:28;;;;;;;19.25;11.80;;;;;;;4.62;77.08;101098.13;234919;1174;115461;-70
2021/03/29 04:47:32;;;;;;;26.50;12.75;;;;;;;4.65;77.60;101118.11;233189;1174;116709;-70
2021/03/29 04:52:35;;;;;;;22.75;11.95;;;;;;;4.69;78.10;101122.08;233400;1174;116729;-68
2021/03/29 04:57:38;;;;;;;20.80;11.95;;;;;;;4.74;78.42;101123.25;233481;1174;115819;-68
2021/03/29 05:02:43;;;;;;;19.60;12.43;;;;;;;4.71;78.10;101122.75;233338;1174;115977;-70
2021/03/29 05:07:47;;;;;;;18.73;11.45;;;;;;;4.66;78.48;101123.23;233932;1174;116850;-72
2021/03/29 05:12:51;;;;;;;22.87;15.80;;;;;;;4.69;79.35;101127.36;233765;1174;115451;-70
2021/03/29 05:17:55;;;;;;;27.40;13.20;;;;;;;4.77;79.19;101129.20;233253;1174;115889;-69
2021/03/29 05:22:59;;;;;;;22.70;12.93;;;;;;;4.78;79.32;101122.92;232474;1174;115893;-68
2021/03/29 05:28:03;;;;;;;17.30;12.83;;;;;;;4.79;79.35;101133.33;232853;1174;116546;-65
2021/03/29 05:33:07;;;;;;;27.37;12.90;;;;;;;4.76;79.60;101128.38;232922;1174;115062;-65
2021/03/29 05:38:11;;;;;;;19.10;14.07;;;;;;;4.86;79.59;101131.70;233081;1174;116148;-64
2021/03/29 05:43:15;;;;;;;25.08;16.40;;;;;;;4.99;79.12;101133.84;232984;1174;115905;-66
2021/03/29 05:48:19;;;;;;;29.13;13.80;;;;;;;5.10;78.95;101138.81;232515;1174;115047;-67
2021/03/29 05:53:23;;;;;;;22.50;12.60;;;;;;;5.14;78.96;101134.02;232763;1174;116186;-66
2021/03/29 06:03:35;;;;;;;28.68;12.73;;;;;;;5.21;79.40;101125.24;232634;1174;115863;-66
2021/03/29 06:08:50;;;;;;;26.47;12.73;;;;;;;5.35;79.63;101129.05;232562;1174;116132;-66
2021/03/29 06:14:14;;;;;;;23.77;12.30;;;;;;;5.52;78.45;101114.80;233983;1174;116040;-65
2021/03/29 06:19:37;;;;;;;21.45;12.13;;;;;;;5.69;78.54;101116.44;233061;1174;116150;-66
2021/03/29 06:24:53;;;;;;;18.75;11.90;;;;;;;5.87;78.22;101121.50;232913;1167;116403;-66
2021/03/29 06:30:18;;;;;;;25.50;14.50;;;;;;;6.17;76.95;101119.09;234964;1174;116520;-64
2021/03/29 06:35:27;;;;;;;18.27;12.23;;;;;;;6.68;76.28;101129.11;234482;1174;116809;-64
2021/03/29 06:40:30;;;;;;;18.67;11.30;;;;;;;7.26;74.96;101127.67;234082;1174;117327;-63
2021/03/29 06:45:36;;;;;;;12.13;7.15;;;;;;;7.42;72.71;101124.86;234814;1169;116453;-64
2021/03/29 06:50:40;;;;;;;13.13;8.20;;;;;;;7.63;71.69;101126.02;235117;1174;115859;-67
2021/03/29 06:55:45;;;;;;;16.17;10.47;;;;;;;7.76;70.68;101139.45;234502;1174;115958;-63
2021/03/29 07:00:55;;;;;;;17.70;9.43;;;;;;;8.07;70.05;101136.63;233088;1174;115334;-66
2021/03/29 07:05:59;;;;;;;20.05;9.45;;;;;;;8.48;68.91;101133.48;232502;1174;115721;-66
2021/03/29 07:11:04;;;;;;;13.88;8.58;;;;;;;8.70;68.75;101129.84;233396;1174;115167;-65
2021/03/29 07:16:08;;;;;;;14.28;9.18;;;;;;;8.81;67.78;101129.36;233358;1174;115289;-64
2021/03/29 07:21:14;;;;;;;6.50;5.43;;;;;;;8.87;65.92;101128.58;233444;1174;114869;-65
2021/03/29 07:26:39;;;;;;;26.10;11.55;;;;;;;9.13;66.79;101122.71;232798;1174;114885;-67
2021/03/29 07:31:43;;;;;;;20.60;9.63;;;;;;;9.39;65.34;101127.42;232812;1174;116637;-66
2021/03/29 07:36:51;;;;;;;17.80;9.53;;;;;;;9.59;65.89;101124.89;232337;1174;115688;-67
2021/03/29 07:42:35;;;;;;;13.25;8.15;;;;;;;9.86;64.44;101128.55;232390;1174;115491;-64
2021/03/29 07:47:41;;;;;;;12.55;9.85;;;;;;;9.79;63.96;101126.66;232583;1177;115288;-63
2021/03/29 07:52:51;;;;;;;15.50;8.93;;;;;;;9.83;65.11;101123.61;233928;1176;115976;-68
2021/03/29 07:58:00;;;;;;;17.65;9.90;;;;;;;10.12;63.95;101128.68;232966;1176;116066;-65
2021/03/29 08:03:11;;;;;;;11.50;8.50;;;;;;;10.37;62.25;101121.05;233120;1174;115721;-66
2021/03/29 08:13:40;;;;;;;9.83;6.58;;;;;;;10.99;60.78;101112.80;232348;1174;117155;-65
2021/03/29 08:19:20;;;;;;;8.50;6.20;;;;;;;11.34;60.30;101112.57;232411;1174;117095;-66
2021/03/29 08:24:28;;;;;;;11.78;6.70;;;;;;;11.59;59.55;101110.93;232462;1174;115771;-65
2021/03/29 08:29:40;;;;;;;14.45;8.20;;;;;;;11.92;59.06;101115.41;234949;1174;115838;-67
2021/03/29 08:35:01;;;;;;;16.83;8.28;;;;;;;12.21;56.61;101112.23;233141;1174;116495;-64
2021/03/29 08:40:21;;;;;;;12.37;6.53;;;;;;;12.39;56.81;101115.02;232645;1174;205401;-64
2021/03/29 08:45:26;;;;;;;10.45;6.85;;;;;;;12.38;56.04;101118.72;235039;1174;116068;-63
2021/03/29 08:50:36;;;;;;;14.35;6.60;;;;;;;12.45;55.96;101127.55;235177;1174;115884;-68
2021/03/29 08:55:42;;;;;;;9.80;6.03;;;;;;;12.64;55.78;101128.46;233209;1176;116697;-67
2021/03/29 09:00:46;;;;;;;14.33;6.97;;;;;;;12.92;55.76;101135.30;233020;1176;116473;-65
2021/03/29 09:05:50;;;;;;;10.45;7.65;;;;;;;13.11;54.49;101148.56;232567;1174;116842;-67
2021/03/29 09:11:01;;;;;;;11.00;6.63;;;;;;;13.09;53.82;101150.64;232483;1174;116722;-66
2021/03/29 09:16:06;;;;;;;11.63;7.60;;;;;;;12.91;54.92;101161.23;232649;1174;117659;-66
2021/03/29 09:21:10;;;;;;;9.25;7.68;;;;;;;12.62;55.67;101167.16;232454;1169;117062;-68
2021/03/29 09:26:23;;;;;;;12.13;6.63;;;;;;;12.44;56.52;101168.69;233954;1174;116110;-67
2021/03/29 09:31:32;;;;;;;13.67;6.40;;;;;;;12.39;57.00;101168.50;232529;1174;118069;-66
2021/03/29 09:36:36;;;;;;;11.28;7.85;;;;;;;12.51;56.98;101162.50;232534;1174;115625;-66
2021/03/29 09:41:49;;;;;;;16.77;6.80;;;;;;;12.80;57.08;101162.77;232987;1174;115581;-68
2021/03/29 09:46:55;;;;;;;7.95;7.05;;;;;;;13.01;55.79;101161.59;232543;1175;115037;-66
2021/03/29 09:52:05;;;;;;;13.75;6.75;;;;;;;13.08;55.73;101158.88;233135;1174;114727;-67
2021/03/29 09:57:21;;;;;;;10.98;6.63;;;;;;;13.04;54.80;101166.52;233307;1170;114920;-66
2021/03/29 10:02:28;;;;;;;14.57;7.80;;;;;;;12.93;55.78;101161.84;233428;1174;115329;-66
2021/03/29 10:07:33;;;;;;;7.88;5.20;;;;;;;12.84;56.29;101156.98;232733;1174;115813;-67
2021/03/29 10:12:38;;;;;;;8.23;4.60;;;;;;;12.80;55.80;101156.59;232669;1170;115221;-66
2021/03/29 10:17:42;;;;;;;8.15;5.70;;;;;;;12.83;56.43;101163.37;234154;1174;114881;-66
2021/03/29 10:22:46;;;;;;;12.75;4.93;;;;;;;12.90;57.74;101167.63;232592;1174;114812;-65
2021/03/29 10:27:55;;;;;;;7.70;4.38;;;;;;;12.98;56.08;101167.38;232815;1174;115940;-66
2021/03/29 10:33:04;;;;;;;10.58;5.65;;;;;;;13.07;55.90;101166.09;234087;1174;114864;-66
2021/03/29 10:38:09;;;;;;;8.20;5.60;;;;;;;13.17;56.13;101149.56;234529;1174;196091;-66
2021/03/29 10:43:17;;;;;;;6.57;5.03;;;;;;;13.24;55.31;101152.19;232550;1174;115382;-66
2021/03/29 10:48:23;;;;;;;9.40;5.38;;;;;;;13.27;54.95;101146.41;235124;1175;115067;-66
2021/03/29 10:53:27;;;;;;;6.80;5.50;;;;;;;13.38;55.96;101148.39;235160;1174;115359;-65
2021/03/29 10:58:30;;;;;;;12.50;5.27;;;;;;;13.51;56.83;101150.94;235140;1174;116361;-68
2021/03/29 11:03:34;;;;;;;11.18;5.95;;;;;;;13.31;55.04;101155.65;235102;1174;116066;-68
2021/03/29 11:08:39;;;;;;;8.73;4.87;;;;;;;13.09;57.22;101147.14;235084;1174;116517;-65
2021/03/29 11:13:41;;;;;;;7.20;4.20;;;;;;;13.07;59.17;101152.70;233206;1174;115865;-67
2021/03/29 11:18:44;;;;;;;6.25;4.75;;;;;;;13.19;56.99;101157.38;232494;1174;115852;-64
2021/03/29 11:23:47;;;;;;;8.80;3.65;;;;;;;13.35;55.42;101140.78;232511;1174;115762;-66
2021/03/29 11:28:51;;;;;;;9.23;6.10;;;;;;;13.49;56.85;101150.33;232531;1174;117272;-66
2021/03/29 11:33:56;;;;;;;3.48;2.95;;;;;;;13.35;55.13;101155.00;232950;1174;115414;-67
2021/03/29 11:38:59;;;;;;;4.50;4.00;;;;;;;13.15;55.72;101147.09;233441;1174;115719;-68
2021/03/29 11:44:03;;;;;;;8.90;4.77;;;;;;;13.22;56.08;101149.73;232672;1174;115260;-71
2021/03/29 11:49:07;;;;;;;7.33;4.28;;;;;;;13.17;56.54;101151.41;232607;1174;115013;-70
2021/03/29 11:54:12;;;;;;;9.70;5.68;;;;;;;13.22;56.51;101149.73;232575;1174;116562;-66
2021/03/29 11:59:16;;;;;;;14.78;5.48;;;;;;;13.23;56.61;101137.98;232971;1174;114955;-67
2021/03/29 12:09:30;;;;;;;8.97;5.17;;;;;;;13.40;57.12;101130.23;232537;1174;116878;-67
2021/03/29 12:14:35;;;;;;;9.88;5.50;;;;;;;13.37;56.00;101136.03;233151;1167;115590;-64
2021/03/29 12:19:40;;;;;;;9.40;5.53;;;;;;;13.43;57.42;101127.95;233784;1174;115972;-65
2021/03/29 12:24:48;;;;;;;7.50;5.15;;;;;;;13.42;58.06;101123.63;232657;1174;117014;-65
2021/03/29 12:29:50;;;;;;;8.60;3.93;;;;;;;13.46;58.04;101121.30;233834;1174;116263;-66
2021/03/29 12:34:56;;;;;;;2.88;2.70;;;;;;;13.41;60.81;101113.13;233007;1174;116451;-67
2021/03/29 12:40:03;;;;;;;13.33;5.77;;;;;;;13.34;59.14;101107.01;232533;1174;115964;-68
2021/03/29 12:45:07;;;;;;;7.33;3.95;;;;;;;13.27;60.66;101115.09;233712;1174;115825;-67
2021/03/29 12:50:12;;;;;;;9.40;6.00;;;;;;;13.35;60.85;101105.97;232544;1167;116430;-67
2021/03/29 12:55:17;;;;;;;9.03;5.45;;;;;;;13.37;61.15;101098.53;233409;1170;115272;-67
2021/03/29 13:00:22;;;;;;;12.95;5.48;;;;;;;13.34;60.66;101094.44;235102;1174;115520;-67
2021/03/29 13:15:40;;;;;;;6.90;4.73;;;;;;;13.52;59.73;101082.92;234059;1174;115917;-68
2021/03/29 13:20:43;;;;;;;10.90;5.67;;;;;;;13.60;60.09;101069.25;233192;1174;115122;-68
2021/03/29 13:25:47;;;;;;;11.08;4.75;;;;;;;13.58;60.10;101079.37;232578;1174;115194;-69
2021/03/29 13:30:50;;;;;;;10.83;4.23;;;;;;;13.74;59.02;101077.98;232536;1174;115234;-69
2021/03/29 13:35:53;;;;;;;7.20;4.30;;;;;;;13.71;58.97;101079.24;233156;1174;116197;-68
2021/03/29 13:40:56;;;;;;;4.23;3.85;;;;;;;13.66;58.66;101078.27;232440;1174;115820;-68
2021/03/29 13:45:58;;;;;;;7.20;4.47;;;;;;;13.60;58.86;101088.00;232484;1170;115488;-68
2021/03/29 13:51:06;;;;;;;11.53;3.78;;;;;;;13.33;59.25;101087.44;233344;1174;115628;-68
2021/03/29 13:56:09;;;;;;;3.40;3.10;;;;;;;13.14;60.97;101089.23;232510;1174;116692;-68
2021/03/29 14:01:14;;;;;;;4.40;2.55;;;;;;;12.89;61.68;101083.02;232364;1174;114732;-66
2021/03/29 14:06:17;;;;;;;6.03;3.53;;;;;;;12.76;63.08;101077.78;233066;1174;115514;-69
2021/03/29 14:11:20;;;;;;;9.13;6.68;;;;;;;12.69;62.95;101076.99;232329;1174;115301;-69
2021/03/29 14:16:23;;;;;;;8.73;5.38;;;;;;;12.60;62.81;101072.92;232363;1174;115459;-68
2021/03/29 14:21:27;;;;;;;6.10;4.83;;;;;;;12.48;63.32;101068.28;232602;1174;115511;-69
2021/03/29 14:26:29;;;;;;;9.70;4.40;;;;;;;12.34;63.87;101064.03;232649;1174;116271;-66
2021/03/29 14:31:33;;;;;;;7.30;4.85;;;;;;;12.34;65.34;101058.67;232511;1175;116031;-65
2021/03/29 14:37:00;;;;;;;6.73;4.67;;;;;;;12.35;66.98;101049.63;232518;1176;116278;-70
2021/03/29 14:47:10;;;;;;;9.57;6.23;;;;;;;12.49;65.82;101045.03;233052;1170;115792;-68
2021/03/29 14:52:13;;;;;;;6.33;4.57;;;;;;;12.56;65.92;101036.94;235005;1174;114763;-67
2021/03/29 14:57:16;;;;;;;10.00;5.43;;;;;;;12.61;66.63;101031.77;233659;1174;114970;-68
2021/03/29 15:02:19;;;;;;;7.45;5.10;;;;;;;12.56;64.37;101018.22;235036;1174;117378;-67
2021/03/29 15:07:22;;;;;;;3.00;2.45;;;;;;;12.36;65.75;101019.17;235073;1174;114984;-68
2021/03/29 15:12:28;;;;;;;11.57;6.80;;;;;;;12.32;66.09;101022.48;233206;1174;115225;-67
2021/03/29 15:17:31;;;;;;;8.70;5.33;;;;;;;12.37;66.52;101017.32;234415;1174;115710;-68
2021/03/29 15:22:33;;;;;;;6.13;4.47;;;;;;;12.33;66.88;101014.25;232543;1174;115130;-66
2021/03/29 15:27:37;;;;;;;6.15;5.45;;;;;;;12.29;66.79;101022.92;232328;1174;115485;-67
2021/03/29 15:32:40;;;;;;;5.73;4.18;;;;;;;12.19;68.26;101020.73;233361;1174;114919;-65
2021/03/29 15:37:44;;;;;;;9.68;5.73;;;;;;;12.09;69.19;101023.03;233685;1172;114911;-65
2021/03/29 15:42:46;;;;;;;10.30;7.38;;;;;;;12.02;68.88;101027.58;232623;1174;206093;-68
2021/03/29 15:47:54;;;;;;;15.87;9.00;;;;;;;11.99;69.74;101030.67;232619;1174;115000;-67
2021/03/29 15:53:08;;;;;;;8.63;7.53;;;;;;;11.85;70.80;101026.44;233018;1174;115569;-65
2021/03/29 15:58:12;;;;;;;10.90;7.40;;;;;;;11.75;72.24;101037.52;232847;1174;116369;-68
2021/03/29 16:03:25;;;;;;;11.55;7.50;;;;;;;11.63;72.43;101044.53;232590;1174;116440;-67
2021/03/29 16:08:28;;;;;;;8.83;5.80;;;;;;;11.44;73.52;101043.56;233188;1174;115632;-68
2021/03/29 16:13:31;;;;;;;10.45;8.40;;;;;;;11.35;75.43;101050.96;232543;1174;115209;-66
2021/03/29 16:18:34;;;;;;;15.00;8.87;;;;;;;11.36;74.96;101046.45;233091;1174;115849;-65
2021/03/29 16:23:37;;;;;;;14.47;9.43;;;;;;;11.34;75.82;101054.66;233152;1174;115378;-68
2021/03/29 16:28:40;;;;;;;20.60;9.60;;;;;;;11.28;76.10;101047.50;232636;1174;116053;-65
2021/03/29 16:33:45;;;;;;;15.58;10.58;;;;;;;11.22;76.71;101060.84;232436;1174;116138;-65
2021/03/29 16:38:50;;;;;;;18.78;12.05;;;;;;;11.17;77.40;101058.80;233684;1174;116381;-66
2021/03/29 16:43:53;;;;;;;18.10;12.30;;;;;;;11.08;78.30;101066.18;233336;1174;116690;-66
2021/03/29 16:48:56;;;;;;;16.80;9.95;;;;;;;10.99;77.95;101056.77;232525;1174;116222;-67
2021/03/29 16:54:00;;;;;;;16.23;10.77;;;;;;;10.93;78.13;101059.42;232607;1174;115582;-68
2021/03/29 16:59:03;;;;;;;22.65;10.53;;;;;;;10.87;78.48;101061.05;232349;1174;116207;-65
2021/03/29 17:04:07;;;;;;;18.95;12.00;;;;;;;10.83;78.93;101062.48;233258;1174;116555;-69
2021/03/29 17:09:11;;;;;;;13.25;11.10;;;;;;;10.76;79.22;101072.31;235123;1167;115292;-64
2021/03/29 17:14:14;;;;;;;16.35;13.05;;;;;;;10.76;79.05;101066.98;234707;1174;116267;-66
2021/03/29 17:19:17;;;;;;;17.35;10.83;;;;;;;10.75;80.16;101068.83;234592;1174;115498;-64
2021/03/29 17:24:20;;;;;;;19.87;12.03;;;;;;;10.67;79.58;101074.38;235003;1174;115198;-67
2021/03/29 17:29:23;;;;;;;27.70;13.00;;;;;;;10.65;80.01;101064.94;233839;1174;115999;-67
2021/03/29 17:34:26;;;;;;;19.27;11.90;;;;;;;10.58;80.26;101062.25;234438;1174;115820;-65
2021/03/29 17:39:30;;;;;;;18.70;13.37;;;;;;;10.53;80.67;101070.02;233939;1174;116716;-67
2021/03/29 17:44:33;;;;;;;18.73;12.03;;;;;;;10.43;80.35;101072.25;234163;1174;115590;-66
2021/03/29 17:49:39;;;;;;;25.20;13.97;;;;;;;10.42;80.37;101068.76;233399;1174;115531;-66
2021/03/29 17:54:42;;;;;;;20.67;13.63;;;;;;;10.32;80.45;101076.34;233386;1174;115588;-65
2021/03/29 17:59:45;;;;;;;18.37;12.70;;;;;;;10.24;81.33;101081.84;232397;1174;116707;-67
2021/03/29 18:04:49;;;;;;;18.15;13.05;;;;;;;10.13;81.40;101077.86;232779;1174;116236;-67
2021/03/29 18:09:53;;;;;;;17.88;13.98;;;;;;;10.15;81.62;101088.32;232382;1174;115987;-67
2021/03/29 18:14:56;;;;;;;23.78;14.10;;;;;;;10.13;81.32;101093.02;232436;1174;116514;-68
2021/03/29 18:20:06;;;;;;;26.05;15.10;;;;;;;10.01;81.69;101084.80;233120;1174;117200;-66
2021/03/29 18:25:11;;;;;;;22.53;14.15;;;;;;;9.95;81.71;101093.57;232404;1174;115851;-67
2021/03/29 18:30:15;;;;;;;22.10;15.95;;;;;;;9.95;82.28;101100.73;233322;1174;115865;-68
2021/03/29 18:35:19;;;;;;;24.33;13.38;;;;;;;9.94;82.31;101105.25;233791;1174;115738;-68
2021/03/29 18:40:23;;;;;;;13.00;10.93;;;;;;;9.87;82.21;101112.37;232374;1171;115569;-67
2021/03/29 18:45:26;;;;;;;17.90;10.65;;;;;;;9.80;82.91;101114.17;233540;1174;117031;-66
2021/03/29 18:50:29;;;;;;;27.30;12.03;;;;;;;9.80;82.44;101114.98;232727;1174;115823;-68
2021/03/29 18:56:04;;;;;;;18.90;11.90;;;;;;;9.80;83.04;101124.81;233028;1174;115606;-68
2021/03/29 19:01:07;;;;;;;12.77;9.17;;;;;;;9.73;83.53;101121.31;232671;1170;115857;-67
2021/03/29 19:06:11;;;;;;;19.93;11.33;;;;;;;9.68;83.15;101119.23;233706;1174;114889;-67
2021/03/29 19:11:14;;;;;;;18.90;13.20;;;;;;;9.67;83.50;101112.27;233464;1174;117435;-68
2021/03/29 19:16:19;;;;;;;15.30;11.40;;;;;;;9.59;83.76;101112.41;235130;1174;116235;-65
2021/03/29 19:21:24;;;;;;;17.55;12.40;;;;;;;9.63;83.66;101113.67;235160;1174;115644;-64
2021/03/29 19:26:30;;;;;;;17.73;10.63;;;;;;;9.64;84.29;101120.64;233587;1174;116100;-65
2021/03/29 19:31:34;;;;;;;21.68;13.58;;;;;;;9.62;84.65;101117.34;232584;1175;117392;-67
2021/03/29 19:36:38;;;;;;;28.05;14.85;;;;;;;9.66;84.53;101118.61;233515;1176;116474;-67
2021/03/29 19:41:41;;;;;;;22.80;13.07;;;;;;;9.63;84.49;101118.98;232828;1176;116971;-67
2021/03/29 19:46:46;;;;;;;20.43;12.53;;;;;;;9.64;84.38;101114.48;232496;1176;117089;-64
2021/03/29 19:51:49;;;;;;;20.83;13.87;;;;;;;9.62;84.06;101092.56;233325;1174;117308;-66
2021/03/29 19:56:54;;;;;;;19.03;10.23;;;;;;;9.58;84.21;101102.77;233106;1174;116394;-68
2021/03/29 20:02:05;;;;;;;18.97;14.50;;;;;;;9.61;84.53;101098.90;232536;1174;117048;-67
2021/03/29 20:12:30;;;;;;;21.13;14.73;;;;;;;9.67;84.05;101108.78;233657;1174;115590;-68
2021/03/29 20:17:36;;;;;;;19.97;13.87;;;;;;;9.69;84.59;101101.42;232539;1174;115393;-66
2021/03/29 20:22:41;;;;;;;28.35;15.00;;;;;;;9.68;84.04;101105.09;232550;1174;116596;-64
2021/03/29 20:27:45;;;;;;;31.25;15.40;;;;;;;9.69;83.78;101096.09;233108;1174;116125;-67
2021/03/29 20:32:50;;;;;;;22.53;15.73;;;;;;;9.68;84.11;101100.59;232619;1174;115215;-67
2021/03/29 20:37:54;;;;;;;20.75;14.35;;;;;;;9.59;83.86;101098.27;232573;1174;115200;-65
2021/03/29 20:42:58;;;;;;;22.88;14.83;;;;;;;9.61;83.78;101102.39;233055;1173;115487;-67
2021/03/29 20:48:02;;;;;;;24.73;13.73;;;;;;;9.63;84.11;101107.52;232462;1174;115148;-67
2021/03/29 20:53:06;;;;;;;21.55;15.25;;;;;;;9.62;83.84;101111.20;232601;1174;116996;-65
2021/03/29 20:58:10;;;;;;;30.95;14.73;;;;;;;9.67;84.24;101108.78;233384;1167;115280;-71
2021/03/29 21:03:14;;;;;;;26.53;14.65;;;;;;;9.69;84.52;101107.56;233407;1174;115567;-65
2021/03/29 21:08:17;;;;;;;27.63;15.53;;;;;;;9.64;84.20;101115.31;232479;1167;117049;-65
2021/03/29 21:13:21;;;;;;;22.85;16.18;;;;;;;9.59;83.96;101101.76;233912;1174;116537;-68
2021/03/29 21:18:24;;;;;;;29.70;16.27;;;;;;;9.63;84.52;101107.52;235007;1167;116376;-66
2021/03/29 21:23:31;;;;;;;27.77;15.10;;;;;;;9.67;83.85;101106.94;234981;1174;114929;-66
2021/03/29 21:28:34;;;;;;;25.70;14.55;;;;;;;9.69;83.90;101112.89;235060;1174;115330;-68
2021/03/29 21:33:40;;;;;;;22.70;13.40;;;;;;;9.59;84.42;101111.58;235065;1174;115618;-66
2021/03/29 21:38:46;;;;;;;27.43;15.08;;;;;;;9.58;84.54;101112.59;233514;1174;115769;-67
2021/03/29 21:43:51;;;;;;;30.10;15.35;;;;;;;9.67;84.33;101104.27;234691;1174;114740;-65
2021/03/29 21:48:55;;;;;;;24.35;15.23;;;;;;;9.69;83.71;101101.42;233557;1173;115484;-66
2021/03/29 21:53:59;;;;;;;27.18;16.00;;;;;;;9.64;84.23;101104.66;233701;1174;116077;-65
2021/03/29 21:59:02;;;;;;;20.33;14.93;;;;;;;9.69;83.92;101110.23;233017;1174;115454;-68
2021/03/29 22:04:06;;;;;;;29.60;14.40;;;;;;;9.61;84.42;101107.71;232632;1174;115822;-65
2021/03/29 22:09:10;;;;;;;25.60;16.88;;;;;;;9.59;83.89;101111.58;232689;1176;116265;-66
2021/03/29 22:14:15;;;;;;;24.45;16.08;;;;;;;9.55;84.70;101111.14;233524;1175;117052;-67
2021/03/29 22:19:20;;;;;;;21.87;14.97;;;;;;;9.60;84.43;101119.38;232682;1168;115773;-65
2021/03/29 22:24:24;;;;;;;26.20;16.58;;;;;;;9.53;84.43;101097.20;232684;1174;116458;-64
2021/03/29 22:29:48;;;;;;;25.55;16.40;;;;;;;9.55;84.83;101097.02;232808;1174;116173;-69
2021/03/29 22:35:01;;;;;;;37.23;16.45;;;;;;;9.51;85.05;101095.75;232625;1174;116747;-66
2021/03/29 22:45:19;;;;;;;21.75;16.65;;;;;;;9.47;84.59;101092.69;232958;1171;116274;-65
2021/03/29 22:50:24;;;;;;;27.97;18.77;;;;;;;9.49;84.96;101084.47;232674;1170;117455;-65
2021/03/29 22:55:28;;;;;;;21.17;16.00;;;;;;;9.34;85.23;101097.90;232704;1174;116063;-66
2021/03/29 23:00:32;;;;;;;28.67;16.90;;;;;;;9.28;85.71;101099.48;232623;1174;115916;-67
2021/03/29 23:05:35;;;;;;;25.75;16.65;;;;;;;9.34;86.28;101105.88;233650;1174;115692;-68
2021/03/29 23:10:39;;;;;;;22.73;16.80;;;;;;;9.34;85.85;101104.05;234450;1174;116093;-68
2021/03/29 23:15:43;;;;;;;28.00;17.18;;;;;;;9.33;86.31;101101.58;233889;1175;117753;-68
2021/03/29 23:20:46;;;;;;;28.98;15.28;;;;;;;9.27;86.87;101094.36;232720;1174;116865;-68
2021/03/29 23:25:50;;;;;;;25.65;17.98;;;;;;;9.28;86.36;101103.98;233907;1174;118034;-67
2021/03/29 23:30:53;;;;;;;27.83;16.57;;;;;;;9.23;86.92;101095.75;235186;1174;116640;-67
2021/03/29 23:35:57;;;;;;;28.40;16.93;;;;;;;9.29;85.72;101100.31;235141;1174;116628;-70